YMTX weather

Mount Dare Airport
South Australia, Australia

Public forecast

Using degrees Celsius for public forecast. Weather courtesy of forecast.io.

METAR (pilot weather report)

Closest report is Birdsville Airport, 221.6 nm (410.3 km) E. Retrieved 2019/05/20 02:00 UTC (32 minutes ago):

YBDV 200200Z AUTO 06009KT //// // ////// 27/13 Q1022

TAF (pilot weather forecast)

Forecast is more than 6 hours old.

Closest forecast is Alice Springs Airport, 153.9 nm (285.1 km) NNW. Retrieved 2019/05/19 18:00 UTC (9 hours ago):

TAF YBAS 191708Z 1918/2018 35005KT CAVOK FM200000 08010KT CAVOK FM201500 04005KT CAVOK PROB30 1918/1924 0300 FG